| time (UTC) | temp F | wind direction | speed MPH | gust MPH | rain 1hr in | rain 24hr in | rain mn in | humidity % | barometer mb |
| 20260510192554 | 62 | 245 | 4.0 | 14.0 | 0.00 | 0.43 | 0.43 | 47 | 1005.1 |
| 20260510192054 | 63 | 300 | 6.0 | 12.0 | 0.00 | 0.43 | 0.43 | 47 | 1005.0 |
| 20260510191559 | 63 | 296 | 4.0 | 12.0 | 0.00 | 0.43 | 0.43 | 49 | 1005.1 |
| 20260510191054 | 62 | 348 | 5.0 | 14.0 | 0.00 | 0.43 | 0.43 | 48 | 1005.2 |
| 20260510190552 | 61 | 275 | 7.0 | 14.0 | 0.00 | 0.43 | 0.43 | 46 | 1005.2 |
| 20260510190052 | 62 | 333 | 6.0 | 13.0 | 0.00 | 0.43 | 0.43 | 48 | 1005.1 |
| 20260510185552 | 62 | 336 | 6.0 | 13.0 | 0.00 | 0.43 | 0.43 | 51 | 1005.2 |
| 20260510185051 | 62 | 321 | 2.0 | 9.0 | 0.00 | 0.43 | 0.43 | 50 | 1005.4 |
| 20260510184549 | 61 | 275 | 4.0 | 15.0 | 0.00 | 0.43 | 0.43 | 58 | 1005.3 |
| 20260510184049 | 61 | 325 | 3.0 | 10.0 | 0.00 | 0.43 | 0.43 | 53 | 1005.3 |
| 20260510183549 | 60 | 292 | 2.0 | 10.0 | 0.00 | 0.43 | 0.43 | 50 | 1005.3 |
| 20260510183048 | 60 | 342 | 5.0 | 12.0 | 0.00 | 0.43 | 0.43 | 49 | 1005.2 |
| 20260510182548 | 60 | 297 | 5.0 | 12.0 | 0.00 | 0.43 | 0.43 | 48 | 1005.3 |
| 20260510182047 | 60 | 26 | 6.0 | 12.0 | 0.00 | 0.43 | 0.43 | 46 | 1005.2 |
| 20260510181551 | 60 | 269 | 4.0 | 14.0 | 0.00 | 0.43 | 0.43 | 49 | 1005.3 |
| 20260510181050 | 60 | 65 | 4.0 | 14.0 | 0.00 | 0.43 | 0.43 | 53 | 1005.3 |
| 20260510180545 | 60 | 295 | 4.0 | 14.0 | 0.00 | 0.43 | 0.43 | 57 | 1005.3 |
| 20260510180044 | 60 | 316 | 3.0 | 10.0 | 0.00 | 0.43 | 0.43 | 55 | 1005.3 |
| 20260510175545 | 59 | 293 | 2.0 | 9.0 | 0.00 | 0.43 | 0.43 | 61 | 1005.4 |
| 20260510175041 | 59 | 355 | 2.0 | 8.0 | 0.00 | 0.43 | 0.43 | 61 | 1005.4 |
| 20260510174550 | 58 | 346 | 2.0 | 8.0 | 0.00 | 0.43 | 0.43 | 61 | 1005.3 |
| 20260510174039 | 58 | 309 | 1.0 | 8.0 | 0.00 | 0.43 | 0.43 | 61 | 1005.4 |
| 20260510173538 | 57 | 279 | 4.0 | 8.0 | 0.00 | 0.43 | 0.43 | 64 | 1005.3 |
| 20260510173039 | 57 | 123 | 2.0 | 6.0 | 0.00 | 0.43 | 0.43 | 67 | 1005.4 |
| 20260510172541 | 57 | 339 | 2.0 | 10.0 | 0.00 | 0.43 | 0.43 | 70 | 1005.5 |
| 20260510172037 | 57 | 15 | 2.0 | 10.0 | 0.00 | 0.43 | 0.43 | 71 | 1005.5 |
| 20260510171536 | 57 | 219 | 2.0 | 9.0 | 0.00 | 0.43 | 0.43 | 73 | 1005.5 |
| 20260510171034 | 56 | 171 | 1.0 | 7.0 | 0.00 | 0.43 | 0.43 | 77 | 1005.4 |
| 20260510170533 | 55 | 173 | 4.0 | 8.0 | 0.00 | 0.43 | 0.43 | 78 | 1005.5 |
| 20260510170031 | 55 | 244 | 2.0 | 10.0 | 0.00 | 0.43 | 0.43 | 80 | 1005.6 |
| 20260510165529 | 53 | 118 | 3.0 | 10.0 | 0.00 | 0.43 | 0.43 | 81 | 1005.6 |
| 20260510165028 | 53 | 196 | 3.0 | 9.0 | 0.00 | 0.43 | 0.43 | 82 | 1005.6 |
| 20260510164534 | 52 | 176 | 4.0 | 9.0 | 0.00 | 0.43 | 0.43 | 87 | 1005.5 |
| 20260510164027 | 51 | 232 | 2.0 | 9.0 | 0.00 | 0.43 | 0.43 | 88 | 1005.6 |
| 20260510163527 | 51 | 212 | 1.0 | 9.0 | 0.00 | 0.43 | 0.43 | 92 | 1005.6 |
| 20260510163028 | 51 | 291 | 1.0 | 6.0 | 0.00 | 0.43 | 0.43 | 93 | 1005.7 |
| 20260510162526 | 50 | 153 | 0.0 | 3.0 | 0.00 | 0.43 | 0.43 | 95 | 1005.6 |
| 20260510162028 | 49 | 177 | 0.0 | 2.0 | 0.00 | 0.43 | 0.43 | 94 | 1005.6 |
| 20260510161526 | 49 | 213 | 0.0 | 3.0 | 0.00 | 0.43 | 0.43 | 93 | 1005.6 |
| 20260510161025 | 49 | 164 | 1.0 | 4.0 | 0.01 | 0.43 | 0.43 | 93 | 1005.7 |
| 20260510160526 | 49 | 171 | 1.0 | 4.0 | 0.03 | 0.43 | 0.43 | 93 | 1005.7 |
| 20260510160024 | 49 | 164 | 1.0 | 7.0 | 0.06 | 0.43 | 0.43 | 93 | 1005.6 |
| 20260510155526 | 48 | 153 | 1.0 | 7.0 | 0.11 | 0.43 | 0.43 | 93 | 1005.7 |
| 20260510155024 | 48 | 136 | 1.0 | 5.0 | 0.12 | 0.43 | 0.43 | 93 | 1005.8 |
| 20260510154524 | 48 | 194 | 1.0 | 5.0 | 0.15 | 0.43 | 0.43 | 93 | 1005.6 |
| 20260510154023 | 48 | 154 | 1.0 | 5.0 | 0.23 | 0.43 | 0.43 | 93 | 1005.6 |
| 20260510153521 | 48 | 310 | 0.0 | 5.0 | 0.24 | 0.43 | 0.43 | 93 | 1005.4 |
| 20260510153035 | 49 | 286 | 1.0 | 5.0 | 0.28 | 0.43 | 0.43 | 94 | 1005.3 |
| 20260510152522 | 49 | 30 | 2.0 | 8.0 | 0.35 | 0.43 | 0.43 | 95 | 1005.3 |
| 20260510152020 | 49 | 325 | 2.0 | 8.0 | 0.38 | 0.43 | 0.43 | 95 | 1005.3 |
| 20260510151520 | 49 | 314 | 3.0 | 13.0 | 0.37 | 0.42 | 0.42 | 95 | 1005.2 |
| 20260510151020 | 49 | 316 | 3.0 | 14.0 | 0.36 | 0.41 | 0.41 | 94 | 1005.1 |
| 20260510150519 | 49 | 309 | 6.0 | 14.0 | 0.35 | 0.40 | 0.40 | 94 | 1005.1 |
| 20260510150018 | 50 | 335 | 5.0 | 13.0 | 0.31 | 0.36 | 0.36 | 95 | 1004.9 |
| 20260510145521 | 50 | 330 | 5.0 | 11.0 | 0.27 | 0.32 | 0.32 | 95 | 1004.7 |
| 20260510145016 | 50 | 337 | 3.0 | 8.0 | 0.26 | 0.31 | 0.31 | 95 | 1004.6 |
| 20260510144521 | 50 | 18 | 2.0 | 7.0 | 0.22 | 0.27 | 0.27 | 94 | 1004.5 |
| 20260510144016 | 51 | 315 | 2.0 | 5.0 | 0.15 | 0.20 | 0.20 | 94 | 1004.6 |
| 20260510143518 | 51 | 329 | 2.0 | 5.0 | 0.14 | 0.19 | 0.19 | 94 | 1004.4 |
| 20260510143014 | 51 | 319 | 2.0 | 5.0 | 0.10 | 0.15 | 0.15 | 93 | 1004.4 |
| 20260510142516 | 51 | 350 | 2.0 | 4.0 | 0.03 | 0.08 | 0.08 | 93 | 1004.5 |
| 20260510142013 | 51 | 288 | 1.0 | 5.0 | 0.01 | 0.05 | 0.05 | 93 | 1004.2 |
| 20260510141513 | 51 | 332 | 1.0 | 5.0 | 0.02 | 0.05 | 0.05 | 92 | 1004.3 |
| 20260510141016 | 51 | 317 | 0.0 | 6.0 | 0.02 | 0.05 | 0.05 | 93 | 1004.3 |
| 20260510140513 | 51 | 334 | 1.0 | 6.0 | 0.02 | 0.05 | 0.05 | 92 | 1004.3 |
| 20260510140011 | 51 | 348 | 1.0 | 4.0 | 0.02 | 0.05 | 0.05 | 92 | 1004.4 |
| 20260510135511 | 52 | 333 | 1.0 | 4.0 | 0.02 | 0.05 | 0.05 | 92 | 1004.2 |
| 20260510135010 | 52 | 250 | 0.0 | 4.0 | 0.02 | 0.05 | 0.05 | 92 | 1004.2 |
| 20260510134510 | 52 | 269 | 0.0 | 2.0 | 0.02 | 0.05 | 0.05 | 92 | 1004.0 |
| 20260510134011 | 52 | 218 | 1.0 | 3.0 | 0.02 | 0.05 | 0.05 | 91 | 1004.0 |
| 20260510133511 | 52 | 156 | 1.0 | 8.0 | 0.02 | 0.05 | 0.05 | 91 | 1004.0 |
| 20260510133013 | 52 | 237 | 0.0 | 8.0 | 0.02 | 0.05 | 0.05 | 90 | 1004.0 |
| 20260510132509 | 52 | 152 | 0.0 | 7.0 | 0.02 | 0.05 | 0.05 | 90 | 1004.0 |
| 20260510132008 | 52 | 163 | 1.0 | 7.0 | 0.01 | 0.04 | 0.04 | 88 | 1004.1 |
| 20260510131508 | 52 | 124 | 0.0 | 5.0 | 0.00 | 0.03 | 0.03 | 88 | 1004.0 |
| 20260510131008 | 52 | 257 | 2.0 | 8.0 | 0.00 | 0.03 | 0.03 | 87 | 1004.1 |
| 20260510130508 | 52 | 115 | 2.0 | 8.0 | 0.00 | 0.03 | 0.03 | 87 | 1004.0 |
| 20260510130006 | 52 | 145 | 1.0 | 7.0 | 0.00 | 0.03 | 0.03 | 87 | 1003.9 |
| 20260510125505 | 52 | 195 | 1.0 | 7.0 | 0.00 | 0.03 | 0.03 | 87 | 1003.9 |
| 20260510125005 | 52 | 321 | 2.0 | 5.0 | 0.00 | 0.03 | 0.03 | 87 | 1003.8 |
| 20260510124505 | 52 | 312 | 1.0 | 8.0 | 0.00 | 0.03 | 0.03 | 87 | 1003.7 |
| 20260510124005 | 52 | 309 | 2.0 | 8.0 | 0.00 | 0.03 | 0.03 | 86 | 1003.5 |
| 20260510123504 | 52 | 161 | 3.0 | 11.0 | 0.00 | 0.03 | 0.03 | 87 | 1003.4 |
| 20260510123005 | 52 | 235 | 4.0 | 11.0 | 0.00 | 0.03 | 0.03 | 86 | 1003.6 |
| 20260510122504 | 52 | 69 | 2.0 | 6.0 | 0.00 | 0.03 | 0.03 | 87 | 1003.6 |
| 20260510122008 | 52 | 162 | 1.0 | 5.0 | 0.00 | 0.03 | 0.03 | 88 | 1003.6 |
| 20260510121504 | 52 | 159 | 1.0 | 7.0 | 0.00 | 0.03 | 0.03 | 89 | 1003.6 |
| 20260510121007 | 52 | 200 | 2.0 | 7.0 | 0.00 | 0.03 | 0.03 | 89 | 1003.6 |
| 20260510120505 | 52 | 240 | 2.0 | 6.0 | 0.00 | 0.03 | 0.03 | 89 | 1003.5 |
| 20260510120001 | 51 | 182 | 1.0 | 8.0 | 0.00 | 0.03 | 0.03 | 89 | 1003.4 |
| 20260510115501 | 51 | 152 | 3.0 | 10.0 | 0.00 | 0.03 | 0.03 | 89 | 1003.4 |
| 20260510115003 | 51 | 150 | 3.0 | 10.0 | 0.00 | 0.03 | 0.03 | 89 | 1003.6 |
| 20260510114607 | 51 | 193 | 3.0 | 9.0 | 0.00 | 0.03 | 0.03 | 89 | 1003.7 |
| 20260510114100 | 51 | 257 | 2.0 | 9.0 | 0.00 | 0.03 | 0.03 | 90 | 1003.5 |
| 20260510113559 | 51 | 179 | 1.0 | 9.0 | 0.00 | 0.03 | 0.03 | 90 | 1003.4 |
| 20260510113059 | 51 | 301 | 4.0 | 12.0 | 0.00 | 0.03 | 0.03 | 90 | 1003.4 |
| 20260510112558 | 51 | 207 | 5.0 | 12.0 | 0.00 | 0.03 | 0.03 | 90 | 1003.3 |
| 20260510112058 | 51 | 260 | 1.0 | 5.0 | 0.00 | 0.03 | 0.03 | 93 | 1003.1 |
| 20260510111558 | 50 | 163 | 2.0 | 6.0 | 0.00 | 0.03 | 0.03 | 93 | 1003.2 |
| 20260510111101 | 50 | 180 | 1.0 | 5.0 | 0.00 | 0.03 | 0.03 | 93 | 1003.4 |
| 20260510110557 | 50 | 215 | 2.0 | 5.0 | 0.00 | 0.03 | 0.03 | 93 | 1003.4 |
| 20260510110058 | 49 | 237 | 1.0 | 5.0 | 0.00 | 0.03 | 0.03 | 93 | 1003.3 |
| 20260510105556 | 49 | 180 | 0.0 | 8.0 | 0.00 | 0.03 | 0.03 | 93 | 1003.1 |
| 20260510105100 | 49 | 176 | 1.0 | 8.0 | 0.00 | 0.03 | 0.03 | 93 | 1003.0 |
| 20260510104610 | 49 | 113 | 0.0 | 3.0 | 0.00 | 0.03 | 0.03 | 93 | 1002.8 |
| 20260510104058 | 49 | 128 | 1.0 | 3.0 | 0.00 | 0.03 | 0.03 | 93 | 1002.5 |
| 20260510103556 | 49 | 118 | 1.0 | 3.0 | 0.00 | 0.03 | 0.03 | 94 | 1002.8 |
| 20260510103057 | 49 | 119 | 0.0 | 4.0 | 0.00 | 0.03 | 0.03 | 93 | 1003.0 |
| 20260510102555 | 48 | 167 | 1.0 | 4.0 | 0.00 | 0.03 | 0.03 | 93 | 1003.0 |
| 20260510102052 | 48 | 238 | 1.0 | 7.0 | 0.00 | 0.03 | 0.03 | 94 | 1002.8 |
| 20260510101552 | 48 | 202 | 0.0 | 7.0 | 0.00 | 0.03 | 0.03 | 94 | 1002.4 |
| 20260510101051 | 48 | 227 | 1.0 | 9.0 | 0.00 | 0.03 | 0.03 | 93 | 1002.3 |
| 20260510100551 | 48 | 115 | 2.0 | 9.0 | 0.00 | 0.03 | 0.03 | 93 | 1002.1 |
| 20260510100056 | 48 | 111 | 2.0 | 4.0 | 0.00 | 0.03 | 0.03 | 92 | 1002.0 |
| 20260510095550 | 48 | 136 | 1.0 | 5.0 | 0.00 | 0.03 | 0.03 | 93 | 1002.3 |
| 20260510095049 | 48 | 132 | 2.0 | 5.0 | 0.00 | 0.03 | 0.03 | 93 | 1002.3 |
| 20260510094551 | 48 | 173 | 2.0 | 6.0 | 0.00 | 0.03 | 0.03 | 93 | 1002.4 |
| 20260510094052 | 48 | 188 | 2.0 | 6.0 | 0.00 | 0.03 | 0.03 | 94 | 1002.4 |
| 20260510093551 | 48 | 124 | 2.0 | 5.0 | 0.00 | 0.03 | 0.03 | 93 | 1002.3 |
| 20260510093047 | 48 | 130 | 2.0 | 5.0 | 0.00 | 0.03 | 0.03 | 92 | 1002.2 |
| 20260510092548 | 48 | 156 | 1.0 | 3.0 | 0.00 | 0.03 | 0.03 | 92 | 1002.2 |
| 20260510092049 | 48 | 155 | 1.0 | 4.0 | 0.00 | 0.03 | 0.03 | 93 | 1002.1 |
| 20260510091547 | 48 | 166 | 0.0 | 3.0 | 0.00 | 0.03 | 0.03 | 93 | 1002.1 |
| 20260510091048 | 48 | 208 | 0.0 | 3.0 | 0.00 | 0.03 | 0.03 | 93 | 1002.1 |
| 20260510090547 | 48 | 191 | 0.0 | 2.0 | 0.00 | 0.03 | 0.03 | 93 | 1001.9 |
| 20260510090046 | 48 | 169 | 0.0 | 2.0 | 0.00 | 0.03 | 0.03 | 92 | 1001.8 |
| 20260510085545 | 48 | 149 | 0.0 | 5.0 | 0.00 | 0.03 | 0.03 | 92 | 1001.7 |
| 20260510085046 | 48 | 188 | 2.0 | 5.0 | 0.00 | 0.03 | 0.03 | 92 | 1001.6 |
| 20260510084551 | 49 | 152 | 0.0 | 3.0 | 0.00 | 0.03 | 0.03 | 92 | 1001.8 |
| 20260510084043 | 49 | 99 | 0.0 | 2.0 | 0.00 | 0.03 | 0.03 | 92 | 1001.8 |
| 20260510083541 | 49 | 128 | 1.0 | 2.0 | 0.01 | 0.03 | 0.03 | 92 | 1001.9 |
| 20260510083044 | 49 | 119 | 0.0 | 2.0 | 0.01 | 0.03 | 0.03 | 92 | 1001.9 |
| 20260510082541 | 49 | 130 | 0.0 | 4.0 | 0.01 | 0.03 | 0.03 | 92 | 1001.9 |
| 20260510082041 | 50 | 151 | 0.0 | 5.0 | 0.01 | 0.03 | 0.03 | 92 | 1002.0 |
| 20260510081541 | 50 | 201 | 2.0 | 6.0 | 0.02 | 0.03 | 0.03 | 92 | 1002.2 |
| 20260510081040 | 50 | 164 | 1.0 | 6.0 | 0.02 | 0.03 | 0.03 | 92 | 1002.3 |
| 20260510080540 | 50 | 203 | 2.0 | 7.0 | 0.02 | 0.03 | 0.03 | 92 | 1002.3 |
| 20260510080043 | 50 | 178 | 1.0 | 4.0 | 0.03 | 0.03 | 0.03 | 92 | 1002.4 |
| 20260510075538 | 50 | 289 | 0.0 | 9.0 | 0.03 | 0.03 | 0.03 | 91 | 1002.2 |
| 20260510075040 | 50 | 336 | 0.0 | 9.0 | 0.03 | 0.03 | 0.03 | 91 | 1002.1 |
| 20260510074538 | 50 | 259 | 1.0 | 10.0 | 0.03 | 0.03 | 0.03 | 91 | 1002.1 |
| 20260510074038 | 50 | 263 | 1.0 | 12.0 | 0.03 | 0.03 | 0.03 | 91 | 1002.1 |
| 20260510073540 | 50 | 194 | 5.0 | 13.0 | 0.02 | 0.02 | 0.02 | 91 | 1002.1 |
| 20260510073044 | 50 | 208 | 6.0 | 15.0 | 0.02 | 0.02 | 0.02 | 90 | 1002.0 |
| 20260510072536 | 50 | 130 | 3.0 | 15.0 | 0.02 | 0.02 | 0.02 | 90 | 1002.1 |
| 20260510072034 | 50 | 142 | 2.0 | 11.0 | 0.02 | 0.02 | 0.02 | 90 | 1002.2 |
| 20260510071543 | 50 | 211 | 5.0 | 9.0 | 0.01 | 0.01 | 0.01 | 89 | 1002.3 |
| 20260510071036 | 51 | 190 | 2.0 | 7.0 | 0.01 | 0.01 | 0.01 | 88 | 1002.4 |
| 20260510070534 | 51 | 308 | 3.0 | 9.0 | 0.01 | 0.01 | 0.01 | 87 | 1002.5 |
| 20260510070032 | 51 | 126 | 3.0 | 10.0 | 0.00 | 0.00 | 0.00 | 86 | 1002.4 |
| 20260510065532 | 51 | 137 | 3.0 | 10.0 | 0.00 | 0.00 | 0.00 | 85 | 1002.4 |
| 20260510065035 | 51 | 162 | 1.0 | 5.0 | 0.00 | 0.00 | 0.00 | 84 | 1002.4 |
| 20260510064531 | 51 | 175 | 1.0 | 4.0 | 0.00 | 0.00 | 0.00 | 83 | 1002.4 |
| 20260510064030 | 51 | 182 | 1.0 | 5.0 | 0.00 | 0.00 | 0.00 | 82 | 1002.3 |
| 20260510063530 | 51 | 199 | 0.0 | 5.0 | 0.00 | 0.00 | 0.00 | 83 | 1002.2 |
| 20260510063031 | 51 | 190 | 1.0 | 3.0 | 0.00 | 0.00 | 0.00 | 83 | 1002.1 |
| 20260510062531 | 51 | 197 | 1.0 | 4.0 | 0.00 | 0.00 | 0.00 | 83 | 1002.1 |
| 20260510062030 | 51 | 157 | 0.0 | 6.0 | 0.00 | 0.00 | 0.00 | 83 | 1001.9 |
| 20260510061530 | 51 | 71 | 3.0 | 6.0 | 0.00 | 0.00 | 0.00 | 83 | 1001.9 |
| 20260510061029 | 51 | 196 | 2.0 | 6.0 | 0.00 | 0.00 | 0.00 | 83 | 1001.9 |
| 20260510060531 | 51 | 128 | 2.0 | 12.0 | 0.00 | 0.00 | 0.00 | 82 | 1002.0 |
| 20260510060034 | 51 | 133 | 3.0 | 12.0 | 0.00 | 0.00 | 0.00 | 82 | 1002.1 |
| 20260510055527 | 51 | 174 | 2.0 | 11.0 | 0.00 | 0.00 | 0.00 | 82 | 1002.3 |
| 20260510055027 | 51 | 163 | 2.0 | 11.0 | 0.00 | 0.00 | 0.00 | 82 | 1002.3 |
| 20260510054527 | 51 | 138 | 5.0 | 10.0 | 0.00 | 0.00 | 0.00 | 82 | 1002.2 |
| 20260510054026 | 51 | 192 | 3.0 | 10.0 | 0.00 | 0.00 | 0.00 | 83 | 1002.3 |
| 20260510053524 | 51 | 185 | 5.0 | 10.0 | 0.00 | 0.00 | 0.00 | 83 | 1002.2 |
| 20260510053024 | 50 | 192 | 3.0 | 8.0 | 0.00 | 0.00 | 0.00 | 83 | 1002.3 |
| 20260510052523 | 50 | 178 | 4.0 | 8.0 | 0.00 | 0.00 | 0.00 | 83 | 1002.2 |
| 20260510052023 | 51 | 136 | 2.0 | 8.0 | 0.00 | 0.00 | 0.00 | 83 | 1002.2 |
| 20260510051529 | 51 | 141 | 3.0 | 8.0 | 0.00 | 0.00 | 0.00 | 83 | 1002.2 |
| 20260510051022 | 51 | 169 | 3.0 | 10.0 | 0.00 | 0.00 | 0.00 | 83 | 1002.2 |
| 20260510050523 | 51 | 132 | 4.0 | 11.0 | 0.00 | 0.00 | 0.00 | 83 | 1002.2 |
| 20260510050020 | 50 | 194 | 2.0 | 11.0 | 0.00 | 0.00 | 0.00 | 83 | 1002.1 |
| 20260510045520 | 50 | 179 | 3.0 | 9.0 | 0.00 | 0.00 | 0.00 | 83 | 1002.0 |
| 20260510045021 | 50 | 189 | 3.0 | 11.0 | 0.00 | 0.00 | 0.00 | 83 | 1002.0 |
| 20260510044522 | 50 | 175 | 2.0 | 10.0 | 0.00 | 0.00 | 0.00 | 83 | 1002.1 |
| 20260510044018 | 50 | 115 | 2.0 | 10.0 | 0.00 | 0.00 | 0.00 | 83 | 1002.1 |
| 20260510043518 | 50 | 170 | 3.0 | 8.0 | 0.00 | 0.00 | 0.00 | 83 | 1002.1 |
| 20260510043018 | 50 | 126 | 3.0 | 12.0 | 0.00 | 0.00 | 0.00 | 83 | 1001.9 |
| 20260510042516 | 50 | 136 | 4.0 | 12.0 | 0.00 | 0.00 | 0.00 | 83 | 1002.1 |
| 20260510042015 | 50 | 167 | 2.0 | 10.0 | 0.00 | 0.00 | 0.00 | 83 | 1001.9 |
| 20260510041515 | 50 | 126 | 4.0 | 10.0 | 0.00 | 0.00 | 0.00 | 83 | 1001.8 |
| 20260510041014 | 50 | 185 | 3.0 | 8.0 | 0.00 | 0.00 | 0.00 | 83 | 1001.7 |
| 20260510040513 | 50 | 159 | 2.0 | 11.0 | 0.00 | 0.00 | 0.00 | 83 | 1001.7 |
| 20260510040012 | 50 | 171 | 4.0 | 12.0 | 0.00 | 0.00 | 0.00 | 83 | 1001.6 |
| 20260510035510 | 50 | 141 | 3.0 | 12.0 | 0.00 | 0.00 | 0.00 | 83 | 1001.7 |
| 20260510035010 | 50 | 176 | 4.0 | 9.0 | 0.00 | 0.00 | 0.00 | 83 | 1001.8 |
| 20260510034513 | 50 | 152 | 4.0 | 10.0 | 0.00 | 0.00 | 0.00 | 83 | 1001.9 |
| 20260510034010 | 50 | 134 | 3.0 | 12.0 | 0.00 | 0.00 | 0.00 | 83 | 1001.9 |
| 20260510033510 | 50 | 172 | 3.0 | 13.0 | 0.00 | 0.00 | 0.00 | 83 | 1002.0 |
| 20260510033009 | 50 | 153 | 3.0 | 13.0 | 0.00 | 0.00 | 0.00 | 83 | 1002.1 |
| 20260510032509 | 50 | 173 | 3.0 | 8.0 | 0.00 | 0.00 | 0.00 | 83 | 1002.2 |
| 20260510032009 | 50 | 132 | 2.0 | 10.0 | 0.00 | 0.00 | 0.00 | 83 | 1002.1 |
| 20260510031509 | 50 | 174 | 3.0 | 12.0 | 0.00 | 0.00 | 0.00 | 84 | 1002.1 |
| 20260510031108 | 50 | 132 | 4.0 | 12.0 | 0.00 | 0.00 | 0.00 | 84 | 1002.0 |
| 20260510030507 | 49 | 122 | 4.0 | 11.0 | 0.00 | 0.00 | 0.00 | 84 | 1002.1 |
| 20260510030007 | 49 | 142 | 2.0 | 9.0 | 0.00 | 0.00 | 0.00 | 85 | 1002.3 |
| 20260510025507 | 49 | 154 | 3.0 | 8.0 | 0.00 | 0.00 | 0.00 | 85 | 1002.2 |
| 20260510025006 | 49 | 170 | 3.0 | 9.0 | 0.00 | 0.00 | 0.00 | 85 | 1002.2 |
| 20260510024507 | 49 | 155 | 4.0 | 9.0 | 0.00 | 0.00 | 0.00 | 85 | 1002.2 |
| 20260510024005 | 49 | 142 | 3.0 | 7.0 | 0.00 | 0.00 | 0.00 | 85 | 1002.2 |
| 20260510023504 | 49 | 130 | 3.0 | 8.0 | 0.00 | 0.00 | 0.00 | 85 | 1002.2 |
| 20260510023007 | 49 | 143 | 3.0 | 9.0 | 0.00 | 0.00 | 0.00 | 85 | 1002.3 |
| 20260510022505 | 48 | 128 | 4.0 | 9.0 | 0.00 | 0.00 | 0.00 | 85 | 1002.2 |
| 20260510022005 | 48 | 126 | 4.0 | 9.0 | 0.00 | 0.00 | 0.00 | 86 | 1002.3 |
| 20260510021503 | 48 | 132 | 3.0 | 7.0 | 0.00 | 0.00 | 0.00 | 86 | 1002.4 |
| 20260510021007 | 48 | 103 | 2.0 | 10.0 | 0.00 | 0.00 | 0.00 | 86 | 1002.5 |
| 20260510020503 | 48 | 165 | 3.0 | 10.0 | 0.00 | 0.00 | 0.00 | 86 | 1002.7 |
| 20260510020003 | 48 | 144 | 3.0 | 9.0 | 0.00 | 0.00 | 0.00 | 85 | 1002.6 |
| 20260510015503 | 48 | 111 | 3.0 | 8.0 | 0.00 | 0.00 | 0.00 | 85 | 1002.6 |
| 20260510015002 | 48 | 130 | 4.0 | 8.0 | 0.00 | 0.00 | 0.00 | 85 | 1002.6 |
| 20260510014502 | 48 | 136 | 4.0 | 9.0 | 0.00 | 0.00 | 0.00 | 85 | 1002.5 |
| 20260510014002 | 49 | 132 | 6.0 | 9.0 | 0.00 | 0.00 | 0.00 | 85 | 1002.5 |
| 20260510013501 | 49 | 157 | 5.0 | 8.0 | 0.00 | 0.00 | 0.00 | 85 | 1002.5 |
| 20260510013109 | 49 | 180 | 4.0 | 8.0 | 0.00 | 0.00 | 0.00 | 85 | 1002.6 |
| 20260510012602 | 49 | 137 | 4.0 | 7.0 | 0.00 | 0.00 | 0.00 | 85 | 1002.7 |
| 20260510012100 | 48 | 118 | 4.0 | 8.0 | 0.00 | 0.00 | 0.00 | 84 | 1002.8 |
| 20260510011600 | 48 | 132 | 4.0 | 8.0 | 0.00 | 0.00 | 0.00 | 84 | 1002.8 |
| 20260510011100 | 48 | 148 | 3.0 | 10.0 | 0.00 | 0.00 | 0.00 | 84 | 1002.8 |
| 20260510010602 | 49 | 159 | 3.0 | 10.0 | 0.00 | 0.00 | 0.00 | 84 | 1002.8 |
| 20260510010112 | 49 | 148 | 3.0 | 8.0 | 0.00 | 0.00 | 0.00 | 83 | 1002.9 |
| 20260510005558 | 49 | 134 | 2.0 | 8.0 | 0.00 | 0.00 | 0.00 | 83 | 1002.9 |
| 20260510005057 | 49 | 119 | 3.0 | 8.0 | 0.00 | 0.00 | 0.00 | 83 | 1003.0 |
| 20260510004603 | 49 | 131 | 2.0 | 7.0 | 0.00 | 0.00 | 0.00 | 83 | 1003.1 |
| 20260510004057 | 49 | 120 | 3.0 | 6.0 | 0.00 | 0.00 | 0.00 | 83 | 1003.0 |
| 20260510003558 | 48 | 123 | 3.0 | 7.0 | 0.00 | 0.00 | 0.00 | 83 | 1003.0 |
| 20260510003102 | 49 | 132 | 2.0 | 7.0 | 0.00 | 0.00 | 0.00 | 83 | 1003.0 |
| 20260510002600 | 49 | 138 | 3.0 | 6.0 | 0.00 | 0.00 | 0.00 | 83 | 1003.1 |
| 20260510002057 | 49 | 131 | 3.0 | 8.0 | 0.00 | 0.00 | 0.00 | 83 | 1003.0 |
| 20260510001558 | 49 | 133 | 3.0 | 8.0 | 0.00 | 0.00 | 0.00 | 82 | 1003.1 |
| 20260510001059 | 49 | 129 | 2.0 | 7.0 | 0.00 | 0.00 | 0.00 | 82 | 1003.1 |
| 20260510000555 | 49 | 141 | 3.0 | 8.0 | 0.00 | 0.00 | 0.00 | 82 | 1003.0 |
| 20260510000113 | 49 | 109 | 3.0 | 7.0 | 0.00 | 0.00 | 0.00 | 81 | 1003.0 |
| 20260509235556 | 49 | 131 | 2.0 | 5.0 | 0.00 | 0.00 | 0.00 | 81 | 1002.9 |
| 20260509235055 | 50 | 117 | 2.0 | 9.0 | 0.00 | 0.00 | 0.00 | 80 | 1002.9 |
| 20260509234605 | 50 | 131 | 3.0 | 9.0 | 0.00 | 0.00 | 0.00 | 80 | 1002.9 |
| 20260509234058 | 50 | 138 | 2.0 | 7.0 | 0.00 | 0.00 | 0.00 | 79 | 1002.9 |
| 20260509233554 | 50 | 132 | 2.0 | 7.0 | 0.00 | 0.00 | 0.00 | 79 | 1003.0 |
| 20260509233055 | 51 | 138 | 2.0 | 12.0 | 0.00 | 0.00 | 0.00 | 78 | 1002.9 |
| 20260509232555 | 51 | 188 | 4.0 | 12.0 | 0.00 | 0.00 | 0.00 | 78 | 1002.8 |
| 20260509232054 | 51 | 121 | 2.0 | 13.0 | 0.00 | 0.00 | 0.00 | 78 | 1002.7 |
| 20260509231553 | 51 | 134 | 6.0 | 13.0 | 0.00 | 0.00 | 0.00 | 78 | 1002.8 |
| 20260509231053 | 50 | 206 | 4.0 | 12.0 | 0.00 | 0.00 | 0.00 | 78 | 1002.9 |
| 20260509230553 | 50 | 130 | 1.0 | 9.0 | 0.00 | 0.00 | 0.00 | 78 | 1002.8 |
| 20260509230052 | 50 | 126 | 4.0 | 9.0 | 0.00 | 0.00 | 0.00 | 78 | 1002.8 |
| 20260509225552 | 50 | 132 | 2.0 | 9.0 | 0.00 | 0.00 | 0.00 | 78 | 1002.8 |
| 20260509225051 | 50 | 137 | 3.0 | 9.0 | 0.00 | 0.00 | 0.00 | 77 | 1002.9 |
| 20260509224552 | 50 | 181 | 3.0 | 8.0 | 0.00 | 0.00 | 0.00 | 77 | 1002.9 |
| 20260509224053 | 51 | 171 | 3.0 | 11.0 | 0.00 | 0.00 | 0.00 | 77 | 1002.9 |
| 20260509223549 | 51 | 165 | 2.0 | 11.0 | 0.00 | 0.00 | 0.00 | 77 | 1002.9 |
| 20260509223050 | 51 | 138 | 4.0 | 9.0 | 0.00 | 0.00 | 0.00 | 76 | 1003.0 |
| 20260509222549 | 51 | 118 | 4.0 | 12.0 | 0.00 | 0.00 | 0.00 | 77 | 1003.0 |
| 20260509222048 | 51 | 133 | 4.0 | 13.0 | 0.00 | 0.00 | 0.00 | 76 | 1003.0 |
| 20260509221604 | 51 | 134 | 4.0 | 9.0 | 0.00 | 0.00 | 0.00 | 76 | 1003.1 |
| 20260509221048 | 52 | 149 | 3.0 | 6.0 | 0.00 | 0.00 | 0.00 | 76 | 1003.1 |
| 20260509220550 | 52 | 147 | 2.0 | 11.0 | 0.00 | 0.00 | 0.00 | 76 | 1003.2 |
| 20260509220059 | 52 | 142 | 2.0 | 11.0 | 0.00 | 0.00 | 0.00 | 76 | 1003.0 |
| 20260509215546 | 51 | 111 | 4.0 | 11.0 | 0.00 | 0.00 | 0.00 | 76 | 1003.0 |
| 20260509215046 | 51 | 108 | 3.0 | 15.0 | 0.00 | 0.00 | 0.00 | 76 | 1003.1 |
| 20260509214545 | 52 | 140 | 5.0 | 15.0 | 0.00 | 0.00 | 0.00 | 75 | 1003.0 |
| 20260509214045 | 52 | 138 | 4.0 | 14.0 | 0.00 | 0.00 | 0.00 | 76 | 1003.2 |
| 20260509213545 | 51 | 144 | 3.0 | 12.0 | 0.00 | 0.00 | 0.00 | 76 | 1003.2 |
| 20260509213045 | 51 | 132 | 4.0 | 14.0 | 0.00 | 0.00 | 0.00 | 76 | 1003.3 |
| 20260509212545 | 51 | 128 | 4.0 | 19.0 | 0.00 | 0.00 | 0.00 | 76 | 1003.2 |
| 20260509212046 | 51 | 159 | 4.0 | 19.0 | 0.00 | 0.00 | 0.00 | 76 | 1003.2 |
| 20260509211546 | 51 | 132 | 4.0 | 11.0 | 0.00 | 0.00 | 0.00 | 76 | 1003.2 |
| 20260509211045 | 51 | 130 | 4.0 | 13.0 | 0.00 | 0.00 | 0.00 | 75 | 1003.3 |
| 20260509210543 | 51 | 120 | 5.0 | 13.0 | 0.00 | 0.00 | 0.00 | 75 | 1003.4 |
| 20260509210049 | 52 | 169 | 4.0 | 12.0 | 0.00 | 0.00 | 0.00 | 75 | 1003.4 |
| 20260509205541 | 52 | 134 | 7.0 | 16.0 | 0.00 | 0.00 | 0.00 | 74 | 1003.4 |
| 20260509205041 | 52 | 121 | 5.0 | 16.0 | 0.00 | 0.00 | 0.00 | 74 | 1003.4 |
| 20260509204541 | 51 | 164 | 4.0 | 10.0 | 0.00 | 0.00 | 0.00 | 74 | 1003.4 |
| 20260509204041 | 51 | 153 | 4.0 | 14.0 | 0.00 | 0.00 | 0.00 | 74 | 1003.4 |
| 20260509203541 | 51 | 168 | 6.0 | 15.0 | 0.00 | 0.00 | 0.00 | 75 | 1003.5 |
| 20260509203045 | 52 | 198 | 5.0 | 12.0 | 0.00 | 0.00 | 0.00 | 74 | 1003.6 |
| 20260509202540 | 52 | 130 | 4.0 | 10.0 | 0.00 | 0.00 | 0.00 | 72 | 1003.6 |
| 20260509202043 | 52 | 164 | 5.0 | 10.0 | 0.00 | 0.00 | 0.00 | 72 | 1003.6 |
| 20260509201541 | 53 | 209 | 4.0 | 13.0 | 0.00 | 0.00 | 0.00 | 70 | 1003.7 |
| 20260509201039 | 53 | 133 | 4.0 | 13.0 | 0.00 | 0.00 | 0.00 | 70 | 1003.7 |
| 20260509200539 | 54 | 159 | 3.0 | 11.0 | 0.00 | 0.00 | 0.00 | 69 | 1003.6 |
| 20260509200043 | 54 | 83 | 4.0 | 11.0 | 0.00 | 0.00 | 0.00 | 69 | 1003.6 |
| 20260509195539 | 54 | 150 | 5.0 | 9.0 | 0.00 | 0.00 | 0.00 | 67 | 1003.6 |
| 20260509195041 | 54 | 138 | 3.0 | 7.0 | 0.00 | 0.00 | 0.00 | 70 | 1003.5 |
| 20260509194538 | 54 | 127 | 2.0 | 8.0 | 0.00 | 0.00 | 0.00 | 71 | 1003.6 |
| 20260509194037 | 54 | 130 | 4.0 | 9.0 | 0.00 | 0.00 | 0.00 | 71 | 1003.6 |
| 20260509193539 | 54 | 177 | 2.0 | 9.0 | 0.00 | 0.00 | 0.00 | 72 | 1003.6 |
| 20260509193044 | 53 | 129 | 4.0 | 9.0 | 0.00 | 0.00 | 0.00 | 71 | 1003.6 |